Time;durP1;ratioP1;P1;durP2;ratioP2;P2;SDS_P1;SDS_P2;PMS_P1;PMS_P2;Temp;Humidity;BMP_temperature;BMP_pressure;BME280_temperature;BME280_humidity;BME280_pressure;Samples;Min_cycle;Max_cycle;Signal;HPM_P1;HPM_P2
2022/08/30 02:32:23;;;;;;;;;;;;;;;;;;;;;
2022/08/30 04:27:04;;;;;;;;;;;;;;;;;;;;;
2022/08/30 04:41:57;;;;;;;;;;;;;;;;;;;;;
2022/08/30 05:53:40;;;;;;;10.30;9.50;;;;;;;18.48;100.00;100837.76;110966;1254;21974;-82
2022/08/30 05:56:45;;;;;;;14.80;10.50;;;;;;;18.52;100.00;100836.64;109489;1265;23685;-80
2022/08/30 05:59:24;;;;;;;10.40;8.50;;;;;;;18.59;100.00;100835.64;108973;1270;22666;-79
2022/08/30 06:01:58;;;;;;;7.80;6.90;;;;;;;18.68;100.00;100839.08;108976;1270;21984;-80
2022/08/30 06:05:12;;;;;;;9.10;7.00;;;;;;;18.72;100.00;100844.31;108606;1277;24344;-80
2022/08/30 06:08:35;;;;;;;;;;;;;;;;;;;;;
2022/08/30 06:11:54;;;;;;;6.80;5.10;;;;;;;18.85;100.00;100845.10;108023;1287;22120;-85
2022/08/30 06:15:06;;;;;;;6.70;4.30;;;;;;;18.90;100.00;100845.77;107910;1287;22044;-86
2022/08/30 06:17:43;;;;;;;10.10;4.30;;;;;;;18.99;100.00;100845.58;108226;1279;21912;-84
2022/08/30 06:20:22;;;;;;;4.60;4.20;;;;;;;19.06;100.00;100846.02;108593;1279;22003;-86
2022/08/30 06:23:21;;;;;;;6.10;4.40;;;;;;;19.16;100.00;100847.38;108670;1273;21992;-87
2022/08/30 06:26:20;;;;;;;4.50;3.90;;;;;;;19.21;100.00;100843.92;108212;1282;23764;-84
2022/08/30 06:29:12;;;;;;;4.70;4.10;;;;;;;19.24;100.00;100846.07;108412;1279;21995;-83
2022/08/30 06:32:00;;;;;;;10.70;5.30;;;;;;;19.25;100.00;100846.80;108470;1279;22460;-81
2022/08/30 06:34:41;;;;;;;9.60;6.70;;;;;;;19.30;100.00;100843.23;108153;1279;23705;-80
2022/08/30 06:37:14;;;;;;;7.20;3.90;;;;;;;19.38;100.00;100842.41;108139;1279;23055;-79
2022/08/30 06:40:01;;;;;;;4.70;3.30;;;;;;;19.45;100.00;100842.30;108343;1280;22026;-80
2022/08/30 06:42:35;;;;;;;5.30;3.30;;;;;;;19.47;100.00;100847.85;108222;1276;21987;-81
2022/08/30 06:45:11;;;;;;;6.40;5.70;;;;;;;19.53;100.00;100852.84;108790;1273;23090;-80
2022/08/30 06:47:43;;;;;;;8.70;5.40;;;;;;;19.58;100.00;100849.52;108744;1273;22043;-81
2022/08/30 06:50:18;;;;;;;7.00;3.90;;;;;;;19.59;100.00;100846.17;108684;1273;23080;-80
2022/08/30 06:52:54;;;;;;;4.50;3.60;;;;;;;19.60;100.00;100844.19;108330;1282;22013;-81
2022/08/30 06:55:36;;;;;;;4.90;2.80;;;;;;;19.65;100.00;100847.86;108299;1282;22232;-80
2022/08/30 06:58:14;;;;;;;3.90;3.00;;;;;;;19.71;100.00;100850.33;108244;1282;23665;-80
2022/08/30 07:00:46;;;;;;;3.60;2.90;;;;;;;19.75;100.00;100852.88;108227;1280;22773;-79
2022/08/30 07:03:26;;;;;;;10.40;4.40;;;;;;;19.78;100.00;100859.08;108364;1274;23145;-79
2022/08/30 07:06:10;;;;;;;5.00;3.10;;;;;;;19.81;100.00;100857.13;108592;1274;22276;-79
2022/08/30 07:08:52;;;;;;;14.30;4.70;;;;;;;19.80;100.00;100859.52;108701;1274;21997;-80
2022/08/30 07:11:35;;;;;;;4.60;2.80;;;;;;;19.77;100.00;100863.17;108537;1271;21984;-78
2022/08/30 07:14:05;;;;;;;4.10;2.80;;;;;;;19.74;100.00;100866.40;108681;1272;22059;-78
2022/08/30 07:16:37;;;;;;;8.70;2.90;;;;;;;19.78;100.00;100868.36;108603;1270;23686;-79
2022/08/30 07:19:13;;;;;;;4.20;2.50;;;;;;;19.85;100.00;100871.73;108809;1270;21989;-77
2022/08/30 07:21:49;;;;;;;5.80;2.60;;;;;;;19.85;100.00;100868.77;108716;1270;23786;-76
2022/08/30 07:24:19;;;;;;;3.50;2.00;;;;;;;19.85;100.00;100874.17;108456;1275;21987;-77
2022/08/30 07:26:52;;;;;;;21.00;5.50;;;;;;;19.84;100.00;100873.94;108417;1274;22495;-77
2022/08/30 07:29:24;;;;;;;7.60;5.10;;;;;;;19.90;100.00;100875.63;108440;1274;22006;-79
2022/08/30 07:31:59;;;;;;;6.70;2.30;;;;;;;19.99;100.00;100878.16;108470;1274;22475;-77
2022/08/30 07:35:05;;;;;;;5.00;1.60;;;;;;;20.06;100.00;100875.56;108577;1273;22005;-84
2022/08/30 07:37:42;;;;;;;5.80;1.70;;;;;;;20.11;100.00;100876.02;109135;1270;22007;-80
2022/08/30 07:40:17;;;;;;;3.60;1.80;;;;;;;20.21;100.00;100877.34;109092;1270;21986;-79
2022/08/30 07:42:50;;;;;;;4.20;2.60;;;;;;;20.36;100.00;100879.49;109141;1270;23692;-79
2022/08/30 07:45:33;;;;;;;6.90;4.70;;;;;;;20.53;100.00;100879.64;108911;1264;22251;-79
2022/08/30 07:48:13;;;;;;;3.70;3.00;;;;;;;20.71;100.00;100881.10;108739;1273;23824;-79
2022/08/30 07:50:54;;;;;;;8.10;4.10;;;;;;;20.85;100.00;100879.10;108697;1273;22067;-79
2022/08/30 07:53:43;;;;;;;;;;;;;;;;;;;;;
2022/08/30 07:56:24;;;;;;;3.20;2.10;;;;;;;21.13;100.00;100875.27;108750;1270;23641;-79
2022/08/30 07:59:00;;;;;;;3.70;1.90;;;;;;;21.25;100.00;100872.83;108462;1276;23724;-79
2022/08/30 08:01:53;;;;;;;7.10;1.70;;;;;;;21.37;100.00;100872.65;108460;1276;23039;-79
2022/08/30 08:04:47;;;;;;;4.80;1.70;;;;;;;21.50;100.00;100880.31;108473;1276;21997;-79
2022/08/30 08:07:31;;;;;;;2.20;1.40;;;;;;;21.58;100.00;100879.63;108862;1270;23711;-79
2022/08/30 08:10:13;;;;;;;2.30;1.40;;;;;;;21.60;100.00;100880.05;108423;1276;24331;-80
2022/08/30 08:13:25;;;;;;;4.00;1.50;;;;;;;21.58;100.00;100888.05;108534;1276;22222;-81
2022/08/30 08:16:27;;;;;;;3.90;1.40;;;;;;;21.55;100.00;100892.11;108783;1271;22053;-78
2022/08/30 08:19:07;;;;;;;3.60;1.50;;;;;;;21.62;100.00;100889.17;108812;1270;23066;-80
2022/08/30 08:21:40;;;;;;;3.70;1.50;;;;;;;21.67;100.00;100894.89;109077;1270;22005;-81
2022/08/30 08:24:14;;;;;;;2.30;1.30;;;;;;;21.66;100.00;100900.31;108934;1273;22121;-80
2022/08/30 08:26:46;;;;;;;8.50;4.70;;;;;;;21.67;100.00;100903.66;109025;1271;22715;-80
2022/08/30 08:29:31;;;;;;;;;;;;;;;21.69;100.00;100909.63;109010;1270;22096;-81
2022/08/30 08:32:06;;;;;;;6.20;5.50;;;;;;;21.60;100.00;100908.05;108866;1273;22872;-81
2022/08/30 08:34:49;;;;;;;6.70;4.90;;;;;;;21.60;100.00;100909.58;108602;1274;23801;-80
2022/08/30 08:37:35;;;;;;;5.10;3.90;;;;;;;21.67;100.00;100917.33;108365;1279;22052;-81
2022/08/30 08:40:21;;;;;;;3.40;2.00;;;;;;;21.75;100.00;100917.11;108273;1282;21991;-81
2022/08/30 08:44:03;;;;;;;6.70;5.60;;;;;;;21.77;100.00;100914.45;108422;1280;22007;-79
2022/08/30 08:47:17;;;;;;;5.00;1.90;;;;;;;21.78;100.00;100919.59;107982;1283;23110;-80
2022/08/30 08:50:00;;;;;;;8.00;7.20;;;;;;;21.76;100.00;100923.39;108455;1277;24363;-80
2022/08/30 08:56:15;;;;;;;4.60;2.70;;;;;;;21.78;100.00;100927.09;108348;1279;23721;-79
2022/08/30 08:59:00;;;;;;;8.50;3.40;;;;;;;21.84;100.00;100929.49;108082;1280;23796;-79
2022/08/30 09:01:49;;;;;;;2.90;1.50;;;;;;;21.85;100.00;100927.98;108023;1283;25110;-79
2022/08/30 09:04:40;;;;;;;3.50;1.50;;;;;;;21.79;100.00;100931.54;107893;1285;23709;-79
2022/08/30 09:07:31;;;;;;;12.10;1.30;;;;;;;21.74;100.00;100929.67;107715;1285;23696;-81
2022/08/30 09:10:23;;;;;;;6.40;4.30;;;;;;;21.70;100.00;100930.63;107985;1285;23090;-79
2022/08/30 09:13:30;;;;;;;3.50;1.30;;;;;;;21.72;100.00;100930.64;107849;1285;23242;-79
2022/08/30 09:16:54;;;;;;;3.80;1.10;;;;;;;21.80;100.00;100933.55;107641;1285;22303;-79
2022/08/30 09:19:43;;;;;;;3.70;1.00;;;;;;;21.87;100.00;100926.14;108434;1279;21988;-78
2022/08/30 09:22:42;;;;;;;2.00;0.90;;;;;;;21.95;100.00;100925.23;108532;1273;22049;-77
2022/08/30 09:25:31;;;;;;;2.60;1.80;;;;;;;22.07;100.00;100929.65;108869;1271;23041;-80
2022/08/30 09:29:01;;;;;;;1.80;0.70;;;;;;;22.21;100.00;100927.32;108863;1270;22155;-81
2022/08/30 09:31:59;;;;;;;4.20;1.00;;;;;;;22.33;100.00;100925.31;108789;1276;23849;-77
2022/08/30 09:35:50;;;;;;;1.80;0.80;;;;;;;22.49;100.00;100925.98;108021;1285;21998;-79
2022/08/30 09:38:44;;;;;;;2.80;1.30;;;;;;;22.82;100.00;100930.15;108321;1284;23077;-80
2022/08/30 09:41:36;;;;;;;3.40;0.80;;;;;;;23.28;100.00;100932.19;108290;1282;22006;-82
2022/08/30 09:44:26;;;;;;;1.80;0.80;;;;;;;23.66;100.00;100931.68;108582;1279;23889;-81
2022/08/30 09:47:32;;;;;;;2.30;0.80;;;;;;;23.79;100.00;100928.65;108456;1279;22144;-80
2022/08/30 09:50:38;;;;;;;2.70;1.30;;;;;;;24.03;100.00;100926.27;108376;1279;22971;-79
2022/08/30 09:53:31;;;;;;;1.40;0.60;;;;;;;24.23;100.00;100926.29;108801;1273;22044;-81
2022/08/30 09:57:33;;;;;;;4.70;0.80;;;;;;;24.20;100.00;100925.77;109070;1270;21984;-80
2022/08/30 10:01:12;;;;;;;1.60;0.70;;;;;;;24.13;100.00;100924.35;108291;1282;22774;-79
2022/08/30 10:04:21;;;;;;;2.30;1.00;;;;;;;24.24;100.00;100922.77;108319;1282;22082;-78
2022/08/30 10:07:14;;;;;;;3.40;1.00;;;;;;;24.23;100.00;100928.13;107744;1283;22083;-79
2022/08/30 10:10:01;;;;;;;4.70;1.20;;;;;;;24.14;100.00;100925.16;108191;1279;23725;-78
2022/08/30 10:13:23;;;;;;;2.70;1.10;;;;;;;24.15;100.00;100922.39;108109;1279;22114;-78
2022/08/30 10:16:05;;;;;;;2.60;1.10;;;;;;;24.08;100.00;100922.30;108409;1279;22001;-79
2022/08/30 10:19:17;;;;;;;4.90;1.30;;;;;;;23.91;100.00;100924.33;108313;1279;22557;-77
2022/08/30 10:21:57;;;;;;;5.40;1.50;;;;;;;23.71;100.00;100926.05;108379;1279;24551;-77
2022/08/30 10:24:44;;;;;;;1.70;0.80;;;;;;;23.54;100.00;100923.39;108401;1279;23643;-78
2022/08/30 10:27:57;;;;;;;2.20;0.80;;;;;;;23.37;100.00;100926.02;108365;1279;22068;-77
2022/08/30 10:30:30;;;;;;;3.40;0.70;;;;;;;23.26;100.00;100921.48;108521;1271;23145;-76
2022/08/30 10:33:09;;;;;;;2.00;0.80;;;;;;;23.25;100.00;100919.84;108839;1270;23009;-77
2022/08/30 10:35:48;;;;;;;1.30;0.70;;;;;;;23.36;100.00;100915.86;108797;1264;23095;-77
2022/08/30 10:38:19;;;;;;;2.90;1.90;;;;;;;23.62;100.00;100915.67;109319;1265;22042;-78
2022/08/30 10:41:14;;;;;;;3.70;0.80;;;;;;;23.72;100.00;100917.52;109577;1265;21949;-77
2022/08/30 10:44:44;;;;;;;6.60;6.00;;;;;;;23.70;100.00;100915.40;109617;1263;21984;-79
2022/08/30 10:47:43;;;;;;;1.20;0.90;;;;;;;23.63;100.00;100915.50;108592;1277;22770;-80
2022/08/30 10:50:30;;;;;;;3.30;2.50;;;;;;;23.52;100.00;100915.92;108581;1279;23699;-79
2022/08/30 10:53:22;;;;;;;4.40;1.10;;;;;;;23.56;100.00;100913.49;108307;1279;23867;-79
2022/08/30 10:56:11;;;;;;;5.70;1.50;;;;;;;23.94;100.00;100910.28;107917;1285;22017;-80
2022/08/30 10:58:43;;;;;;;1.80;1.30;;;;;;;24.23;100.00;100905.05;107382;1288;23077;-80
2022/08/30 11:01:45;;;;;;;3.50;1.40;;;;;;;24.24;100.00;100901.37;107554;1288;24457;-80
2022/08/30 11:04:39;;;;;;;2.30;1.50;;;;;;;24.31;100.00;100896.35;107263;1292;23753;-80
2022/08/30 11:07:57;;;;;;;3.20;1.60;;;;;;;24.33;100.00;100897.14;107137;1292;22371;-79
2022/08/30 11:10:57;;;;;;;1.40;0.50;;;;;;;24.26;100.00;100895.46;106318;1300;23727;-80
2022/08/30 11:13:43;;;;;;;1.20;0.50;;;;;;;24.27;100.00;100897.20;106139;1299;24419;-79
2022/08/30 11:16:42;;;;;;;1.60;0.60;;;;;;;24.35;100.00;100895.61;106196;1297;23110;-79
2022/08/30 11:19:36;;;;;;;1.90;0.60;;;;;;;24.43;100.00;100899.32;106425;1299;22016;-79
2022/08/30 11:22:29;;;;;;;2.20;1.20;;;;;;;24.46;100.00;100902.33;107335;1290;22877;-79
2022/08/30 11:25:37;;;;;;;2.80;2.00;;;;;;;24.45;100.00;100898.60;107980;1283;23792;-78
2022/08/30 11:28:07;;;;;;;2.70;1.50;;;;;;;24.38;100.00;100893.56;107877;1277;21941;-79
2022/08/30 11:30:51;;;;;;;2.00;1.30;;;;;;;24.33;100.00;100892.81;108093;1279;21988;-79
2022/08/30 11:33:41;;;;;;;3.70;0.70;;;;;;;24.24;100.00;100894.55;108404;1280;22018;-80
2022/08/30 11:36:28;;;;;;;0.90;0.50;;;;;;;24.13;100.00;100887.80;108293;1280;23069;-79
2022/08/30 11:39:15;;;;;;;16.20;2.60;;;;;;;24.01;100.00;100887.27;108417;1279;21985;-80
2022/08/30 11:42:12;;;;;;;3.50;1.30;;;;;;;24.02;100.00;100886.92;108297;1279;21993;-79
2022/08/30 11:45:23;;;;;;;1.40;0.60;;;;;;;24.11;100.00;100885.83;108407;1273;22041;-79
2022/08/30 11:49:12;;;;;;;;;;;;;;;;;;;;;
2022/08/30 11:52:18;;;;;;;5.00;1.40;;;;;;;24.34;100.00;100882.09;109387;1267;22294;-79
2022/08/30 11:56:05;;;;;;;;;;;;;;;;;;;;;
2022/08/30 11:59:39;;;;;;;5.20;1.10;;;;;;;24.52;100.00;100876.93;108791;1273;22008;-78
2022/08/30 12:02:58;;;;;;;1.30;0.70;;;;;;;24.55;100.00;100878.07;108776;1277;21970;-79
2022/08/30 12:05:51;;;;;;;;;;;;;;;;;;;;;
2022/08/30 12:09:29;;;;;;;3.40;1.40;;;;;;;24.43;100.00;100872.52;108787;1276;22015;-80
2022/08/30 12:12:04;;;;;;;3.20;1.20;;;;;;;24.36;100.00;100871.86;108534;1276;22404;-80
2022/08/30 12:15:27;;;;;;;3.00;1.80;;;;;;;24.30;100.00;100878.63;108397;1283;22044;-79
2022/08/30 12:20:52;;;;;;;2.80;1.00;;;;;;;23.89;100.00;100879.13;107960;1287;23693;-78
2022/08/30 12:24:17;;;;;;;8.00;5.90;;;;;;;23.75;100.00;100879.15;107620;1289;23735;-79
2022/08/30 12:26:52;;;;;;;3.70;1.10;;;;;;;23.56;100.00;100881.35;107260;1289;22191;-80
2022/08/30 12:29:31;;;;;;;5.80;2.80;;;;;;;23.47;100.00;100877.08;106590;1297;22094;-79
2022/08/30 12:32:31;;;;;;;2.80;1.70;;;;;;;23.44;100.00;100874.23;107097;1291;22077;-78
2022/08/30 12:35:07;;;;;;;3.50;1.60;;;;;;;23.46;100.00;100868.66;106864;1293;22011;-80
2022/08/30 12:37:40;;;;;;;2.00;1.00;;;;;;;23.48;100.00;100866.70;106556;1297;22026;-78
2022/08/30 12:40:33;;;;;;;3.60;2.50;;;;;;;23.45;100.00;100862.98;107243;1292;22129;-78
2022/08/30 12:43:23;;;;;;;5.80;1.60;;;;;;;23.42;100.00;100862.13;107098;1292;23153;-82
2022/08/30 12:46:54;;;;;;;6.20;4.20;;;;;;;23.41;100.00;100858.91;107328;1292;22053;-80
2022/08/30 12:49:47;;;;;;;8.60;5.90;;;;;;;23.39;100.00;100852.03;107537;1289;22132;-82
2022/08/30 12:52:56;;;;;;;;;;;;;;;;;;;;;
2022/08/30 12:56:09;;;;;;;5.00;2.50;;;;;;;23.37;100.00;100856.73;108221;1283;22017;-79
2022/08/30 12:59:47;;;;;;;7.70;2.00;;;;;;;23.23;100.00;100850.80;107932;1283;23680;-80
2022/08/30 13:03:35;;;;;;;5.00;1.20;;;;;;;23.17;100.00;100852.13;108813;1273;24377;-85
2022/08/30 13:07:48;;;;;;;5.40;3.10;;;;;;;23.05;100.00;100852.50;108644;1273;22276;-83
2022/08/30 13:10:49;;;;;;;3.60;2.00;;;;;;;22.92;100.00;100852.84;108679;1279;23583;-81
2022/08/30 13:14:00;;;;;;;2.90;1.70;;;;;;;22.90;100.00;100853.34;108354;1279;22067;-79
2022/08/30 13:16:46;;;;;;;2.90;1.70;;;;;;;22.93;100.00;100854.96;108375;1279;23721;-78
2022/08/30 13:20:14;;;;;;;;;;;;;;;;;;;;;
2022/08/30 13:23:47;;;;;;;3.90;1.10;;;;;;;22.87;100.00;100851.87;108518;1279;22023;-78
2022/08/30 13:26:30;;;;;;;4.50;0.90;;;;;;;22.82;100.00;100852.46;108399;1279;23088;-82
2022/08/30 13:29:13;;;;;;;2.50;1.10;;;;;;;22.79;100.00;100848.03;108403;1279;22947;-82
2022/08/30 13:31:43;;;;;;;2.30;1.20;;;;;;;22.77;100.00;100846.41;108487;1283;22106;-84
2022/08/30 13:34:21;;;;;;;4.00;1.00;;;;;;;22.77;100.00;100847.17;108401;1281;21996;-84
2022/08/30 13:37:30;;;;;;;2.10;1.20;;;;;;;22.65;100.00;100842.02;108238;1283;23101;-80
2022/08/30 13:40:30;;;;;;;2.10;1.30;;;;;;;22.48;100.00;100840.34;108175;1283;23678;-81
2022/08/30 13:43:03;;;;;;;2.20;0.80;;;;;;;22.42;100.00;100840.93;108219;1283;22020;-79
2022/08/30 13:45:36;;;;;;;1.90;1.00;;;;;;;22.37;100.00;100837.29;108141;1283;21990;-79
2022/08/30 13:48:35;;;;;;;3.80;1.10;;;;;;;22.37;100.00;100836.80;108495;1277;24389;-80
2022/08/30 13:51:19;;;;;;;3.20;1.30;;;;;;;22.38;100.00;100832.02;108740;1270;22072;-81
2022/08/30 13:54:06;;;;;;;6.80;1.40;;;;;;;22.36;100.00;100830.52;108968;1270;22408;-79
2022/08/30 13:57:20;;;;;;;3.80;2.20;;;;;;;22.36;100.00;100830.70;109091;1268;22007;-84
2022/08/30 14:00:32;;;;;;;3.20;2.50;;;;;;;22.40;100.00;100832.61;109236;1270;22085;-81
2022/08/30 14:03:35;;;;;;;2.70;1.70;;;;;;;22.39;100.00;100831.80;109050;1270;24291;-82
2022/08/30 14:07:20;;;;;;;1.40;0.80;;;;;;;22.35;100.00;100827.61;109076;1270;22454;-82
2022/08/30 14:10:11;;;;;;;;;;;;;;;;;;;;;
2022/08/30 14:13:19;;;;;;;;;;;;;;;;;;;;;
2022/08/30 14:16:30;;;;;;;;;;;;;;;22.36;100.00;100822.99;109014;1270;21992;-82
2022/08/30 14:19:50;;;;;;;5.30;1.20;;;;;;;22.26;100.00;100823.11;108491;1279;23714;-81
2022/08/30 14:23:00;;;;;;;2.90;1.30;;;;;;;22.30;100.00;100819.85;108082;1285;21998;-80
2022/08/30 14:25:43;;;;;;;3.40;0.70;;;;;;;22.35;100.00;100819.35;107930;1285;22794;-79
2022/08/30 14:28:18;;;;;;;2.50;0.80;;;;;;;22.37;100.00;100811.45;107820;1286;22391;-80
2022/08/30 14:30:59;;;;;;;2.00;0.90;;;;;;;22.42;100.00;100817.64;107635;1286;22012;-79
2022/08/30 14:34:25;;;;;;;2.40;0.50;;;;;;;22.39;100.00;100815.68;107654;1285;23380;-80
2022/08/30 14:37:18;;;;;;;4.80;1.10;;;;;;;22.34;100.00;100813.59;108125;1280;22017;-80
2022/08/30 14:40:24;;;;;;;;;;;;;;;;;;;;;
2022/08/30 14:43:39;;;;;;;;;;;;;;;;;;;;;
2022/08/30 14:47:01;;;;;;;3.60;0.90;;;;;;;22.27;100.00;100810.05;108986;1269;22064;-79
2022/08/30 14:49:52;;;;;;;3.20;1.10;;;;;;;22.28;100.00;100806.84;108588;1270;22166;-79
2022/08/30 14:52:44;;;;;;;1.90;0.70;;;;;;;22.29;100.00;100809.11;108669;1274;22016;-79
2022/08/30 14:56:27;;;;;;;;;;;;;;;;;;;;;
2022/08/30 14:59:17;;;;;;;2.20;0.80;;;;;;;22.31;100.00;100807.98;108555;1279;22007;-80
2022/08/30 15:02:06;;;;;;;2.20;0.70;;;;;;;22.32;100.00;100806.01;108675;1276;21985;-80
2022/08/30 15:04:54;;;;;;;5.90;1.00;;;;;;;22.36;100.00;100805.55;108379;1276;22413;-79
2022/08/30 15:07:40;;;;;;;4.30;0.70;;;;;;;22.38;100.00;100808.73;108410;1276;22006;-79
2022/08/30 15:11:19;;;;;;;2.30;1.40;;;;;;;22.38;100.00;100809.45;108720;1270;23675;-79
2022/08/30 15:14:40;;;;;;;1.10;0.60;;;;;;;22.35;100.00;100807.48;108813;1270;21993;-80
2022/08/30 15:17:56;;;;;;;2.00;0.50;;;;;;;22.30;100.00;100807.64;108746;1273;23080;-80
2022/08/30 15:21:08;;;;;;;4.90;0.80;;;;;;;22.25;100.00;100805.95;108136;1279;23082;-80
2022/08/30 15:25:09;;;;;;;1.50;0.50;;;;;;;22.22;100.00;100800.79;108381;1279;22010;-79
2022/08/30 15:28:03;;;;;;;1.80;0.80;;;;;;;22.23;100.00;100801.93;108471;1279;22778;-80
2022/08/30 15:31:29;;;;;;;1.60;0.60;;;;;;;22.21;100.00;100801.02;108287;1278;23623;-79
2022/08/30 15:34:25;;;;;;;3.60;0.60;;;;;;;22.18;100.00;100798.69;108697;1273;22159;-80
2022/08/30 15:37:27;;;;;;;2.70;0.80;;;;;;;22.11;100.00;100797.00;108723;1273;21991;-80
2022/08/30 15:40:28;;;;;;;4.30;0.70;;;;;;;22.05;100.00;100797.58;108381;1279;22018;-79
2022/08/30 15:43:02;;;;;;;2.80;1.20;;;;;;;21.98;100.00;100798.88;108584;1279;23813;-79
2022/08/30 15:45:32;;;;;;;5.20;1.20;;;;;;;21.92;100.00;100797.46;108252;1279;22366;-80
2022/08/30 15:48:20;;;;;;;;;;;;;;;;;;;;;
2022/08/30 15:51:43;;;;;;;;;;;;;;;;;;;;;
2022/08/30 15:54:48;;;;;;;1.90;0.70;;;;;;;21.62;100.00;100788.11;108164;1280;22007;-81
2022/08/30 15:58:18;;;;;;;;;;;;;;;;;;;;;
2022/08/30 16:01:59;;;;;;;3.10;1.80;;;;;;;21.47;100.00;100784.75;108800;1273;22756;-80
2022/08/30 16:04:44;;;;;;;4.00;2.20;;;;;;;21.43;100.00;100785.25;108858;1268;23684;-80
2022/08/30 16:07:44;;;;;;;2.20;1.70;;;;;;;21.41;100.00;100783.95;108939;1270;23938;-79
2022/08/30 16:10:33;;;;;;;6.50;2.20;;;;;;;21.38;100.00;100786.61;108753;1267;22070;-79
2022/08/30 16:14:16;;;;;;;6.70;1.60;;;;;;;21.36;100.00;100786.17;108663;1273;21986;-79
2022/08/30 16:17:39;;;;;;;;;;;;;;;;;;;;;
2022/08/30 16:21:09;;;;;;;;;;;;;;;;;;;;;
2022/08/30 16:25:18;;;;;;;;;;;;;;;;;;;;;
2022/08/30 16:28:58;;;;;;;;;;;;;;;;;;;;;
2022/08/30 16:32:36;;;;;;;;;;;;;;;;;;;;;
2022/08/30 16:36:16;;;;;;;;;;;;;;;;;;;;;
2022/08/30 16:39:06;;;;;;;3.70;1.90;;;;;;;21.17;100.00;100783.52;107712;1288;22826;-78
2022/08/30 16:41:52;;;;;;;64.70;7.80;;;;;;;21.16;100.00;100781.05;107106;1293;22100;-79
2022/08/30 16:44:52;;;;;;;5.00;2.90;;;;;;;21.11;100.00;100778.88;106947;1292;22050;-78
2022/08/30 16:47:49;;;;;;;5.10;2.90;;;;;;;21.07;100.00;100779.84;107053;1292;22052;-83
2022/08/30 16:50:22;;;;;;;6.20;3.50;;;;;;;21.05;100.00;100782.42;107572;1287;22001;-80
2022/08/30 16:52:51;;;;;;;4.60;3.20;;;;;;;21.02;100.00;100780.40;107572;1286;22078;-80
2022/08/30 16:55:21;;;;;;;7.20;3.90;;;;;;;20.98;100.00;100776.90;107041;1292;22065;-80
2022/08/30 16:57:50;;;;;;;6.70;4.20;;;;;;;20.95;100.00;100779.50;106876;1296;22087;-79
2022/08/30 17:00:20;;;;;;;4.70;2.40;;;;;;;20.92;100.00;100779.33;107203;1289;22116;-79
2022/08/30 17:03:01;;;;;;;4.50;3.20;;;;;;;20.88;100.00;100782.23;107273;1292;22034;-80
2022/08/30 17:05:31;;;;;;;5.60;3.00;;;;;;;20.84;100.00;100783.44;107314;1292;22039;-82
2022/08/30 17:08:02;;;;;;;6.50;3.00;;;;;;;20.79;100.00;100782.76;106649;1293;22021;-79
2022/08/30 17:10:32;;;;;;;9.40;2.30;;;;;;;20.74;100.00;100782.15;107339;1287;23830;-79
2022/08/30 17:13:09;;;;;;;4.50;2.30;;;;;;;20.72;100.00;100785.73;107824;1282;22245;-78
2022/08/30 17:15:44;;;;;;;10.00;8.90;;;;;;;20.70;100.00;100784.10;108321;1282;23099;-79
2022/08/30 17:18:19;;;;;;;3.60;2.50;;;;;;;20.66;100.00;100789.26;108104;1282;22097;-79
2022/08/30 17:20:57;;;;;;;12.60;7.50;;;;;;;20.62;100.00;100787.28;107966;1282;24064;-78
2022/08/30 17:23:30;;;;;;;8.70;6.80;;;;;;;20.59;100.00;100787.44;108172;1276;22000;-78
2022/08/30 17:26:02;;;;;;;6.30;3.30;;;;;;;20.56;100.00;100785.52;108605;1270;22064;-79
2022/08/30 17:28:44;;;;;;;8.30;3.90;;;;;;;20.53;100.00;100786.79;107891;1263;1504071;-90
2022/08/30 17:31:33;;;;;;;11.40;8.30;;;;;;;20.50;100.00;100793.05;109539;1264;21976;-80
2022/08/30 17:34:26;;;;;;;12.70;9.40;;;;;;;20.47;100.00;100795.70;109365;1264;23491;-82
2022/08/30 17:37:19;;;;;;;14.70;7.40;;;;;;;20.47;100.00;100802.52;109068;1270;23090;-80
2022/08/30 17:40:55;;;;;;;5.70;3.10;;;;;;;20.41;100.00;100808.45;109096;1270;23730;-78
2022/08/30 17:43:36;;;;;;;9.10;4.50;;;;;;;20.39;100.00;100806.89;109151;1270;22063;-81
2022/08/30 17:46:19;;;;;;;7.30;4.30;;;;;;;20.42;100.00;100807.40;108755;1276;23078;-81
2022/08/30 17:49:18;;;;;;;6.90;4.90;;;;;;;20.40;100.00;100813.69;108823;1276;22453;-80
2022/08/30 17:52:04;;;;;;;;;;;;;;;;;;;;;
2022/08/30 17:54:49;;;;;;;6.70;4.70;;;;;;;20.40;100.00;100818.19;108501;1270;21999;-79
2022/08/30 18:01:20;;;;;;;8.70;6.10;;;;;;;20.36;100.00;100820.26;110284;1264;23798;-87
2022/08/30 18:05:21;;;;;;;7.00;4.40;;;;;;;20.33;100.00;100826.27;109410;1267;23075;-81
2022/08/30 18:08:15;;;;;;;7.90;4.40;;;;;;;20.34;100.00;100830.43;108957;1273;22336;-80
2022/08/30 18:11:07;;;;;;;13.00;7.90;;;;;;;20.34;100.00;100831.67;108918;1270;21984;-80
2022/08/30 18:14:24;;;;;;;7.90;4.60;;;;;;;20.34;100.00;100836.45;108599;1279;21999;-81
2022/08/30 18:17:20;;;;;;;13.10;11.20;;;;;;;20.31;100.00;100836.89;107861;1288;22009;-80
2022/08/30 18:20:15;;;;;;;13.60;11.80;;;;;;;20.29;100.00;100840.91;107803;1290;22007;-79
2022/08/30 18:23:59;;;;;;;;;;;;;;;;;;;;;
2022/08/30 18:27:26;;;;;;;19.20;12.40;;;;;;;20.19;100.00;100851.80;107780;1289;22019;-80
2022/08/30 18:30:25;;;;;;;13.60;11.10;;;;;;;20.15;100.00;100852.96;107910;1288;22106;-80
2022/08/30 18:33:36;;;;;;;13.70;11.30;;;;;;;20.10;100.00;100851.27;108326;1282;22035;-80
2022/08/30 18:36:32;;;;;;;11.70;9.10;;;;;;;20.08;100.00;100851.95;108101;1282;22788;-80
2022/08/30 18:39:50;;;;;;;7.90;5.80;;;;;;;20.07;100.00;100849.47;108267;1282;22089;-78
2022/08/30 18:43:33;;;;;;;12.20;6.00;;;;;;;20.00;100.00;100850.77;108213;1282;23191;-81
2022/08/30 18:47:09;;;;;;;13.20;7.00;;;;;;;19.94;100.00;100846.59;108764;1281;21964;-80
2022/08/30 18:57:40;;;;;;;9.80;8.60;;;;;;;19.88;100.00;100849.16;109782;1264;22344;-84
2022/08/30 19:01:57;;;;;;;;;;;;;;;;;;;;;
2022/08/30 19:04:36;;;;;;;9.20;6.40;;;;;;;19.86;100.00;100843.64;108936;1270;22165;-78
2022/08/30 19:16:09;;;;;;;;;;;;;;;19.77;100.00;100841.67;108228;1282;21999;-77
2022/08/30 19:20:02;;;;;;;;;;;;;;;;;;;;;
2022/08/30 19:23:48;;;;;;;;;;;;;;;;;;;;;
2022/08/30 19:27:05;;;;;;;15.20;8.10;;;;;;;19.64;100.00;100841.77;107663;1285;22009;-79
2022/08/30 19:31:12;;;;;;;;;;;;;;;;;;;;;
2022/08/30 19:41:07;;;;;;;9.40;7.10;;;;;;;19.57;100.00;100848.50;110202;1264;22758;-79
2022/08/30 19:43:51;;;;;;;8.60;6.50;;;;;;;19.60;100.00;100847.20;109164;1265;22060;-78
2022/08/30 19:46:28;;;;;;;12.00;6.40;;;;;;;19.63;100.00;100848.81;109391;1264;21981;-78
2022/08/30 19:49:19;;;;;;;;;;;;;;;;;;;;;
2022/08/30 19:52:54;;;;;;;10.10;7.50;;;;;;;19.62;100.00;100851.45;109800;1264;21993;-83
2022/08/30 19:55:47;;;;;;;9.40;8.20;;;;;;;19.59;100.00;100849.65;109478;1264;24306;-82
2022/08/30 19:59:12;;;;;;;11.10;8.10;;;;;;;19.55;100.00;100849.52;109642;1265;22036;-85
2022/08/30 20:02:26;;;;;;;9.80;7.30;;;;;;;19.50;100.00;100847.20;109883;1264;22266;-83
2022/08/30 20:10:44;;;;;;;9.50;6.80;;;;;;;19.35;100.00;100851.48;108488;1282;22309;-83
2022/08/30 20:13:40;;;;;;;8.60;6.80;;;;;;;19.34;100.00;100851.02;108681;1282;22102;-84
2022/08/30 20:16:32;;;;;;;10.90;9.70;;;;;;;19.35;100.00;100851.59;108203;1282;22104;-85
2022/08/30 20:19:33;;;;;;;14.70;10.70;;;;;;;19.35;100.00;100853.31;108431;1282;22015;-84
2022/08/30 20:22:57;;;;;;;11.20;9.30;;;;;;;19.34;100.00;100851.17;107975;1288;22053;-83
2022/08/30 20:26:08;;;;;;;10.40;8.90;;;;;;;19.32;100.00;100851.02;108382;1282;22053;-81
2022/08/30 20:29:15;;;;;;;;;;;;;;;19.30;100.00;100853.24;108288;1282;24348;-83
2022/08/30 20:32:04;;;;;;;10.80;9.00;;;;;;;19.17;100.00;100845.52;108321;1282;22485;-83
2022/08/30 20:38:26;;;;;;;10.80;7.60;;;;;;;19.09;100.00;100847.35;107978;1287;23635;-83
2022/08/30 20:41:23;;;;;;;;;;;;;;;19.06;100.00;100847.29;108451;1276;22242;-83
2022/08/30 20:44:39;;;;;;;10.60;7.90;;;;;;;18.95;100.00;100848.31;108988;1275;21996;-82